createdAt,value
2019-05-14T00:03:43.164Z,11.67
2019-05-14T00:08:44.742Z,11.56
2019-05-14T00:13:46.329Z,11.47
2019-05-14T00:18:48.033Z,11.46
2019-05-14T00:23:51.385Z,11.34
2019-05-14T00:28:53.255Z,11.27
2019-05-14T00:33:54.861Z,11.40
2019-05-14T00:38:56.449Z,11.44
2019-05-14T00:43:58.035Z,11.44
2019-05-14T00:49:01.681Z,11.36
2019-05-14T00:54:03.311Z,11.22
2019-05-14T00:59:04.885Z,11.25
2019-05-14T01:04:06.443Z,11.23
2019-05-14T01:09:08.296Z,11.14
2019-05-14T01:14:12.018Z,11.06
2019-05-14T01:19:13.433Z,10.94
2019-05-14T01:24:14.982Z,10.91
2019-05-14T01:29:16.529Z,10.94
2019-05-14T01:34:18.100Z,10.73
2019-05-14T01:39:21.298Z,10.73
2019-05-14T01:44:22.940Z,10.68
2019-05-14T01:49:24.498Z,10.60
2019-05-14T01:54:26.158Z,10.57
2019-05-14T01:59:27.717Z,10.47
2019-05-14T02:04:31.149Z,10.37
2019-05-14T02:09:32.919Z,10.22
2019-05-14T02:14:34.477Z,9.96
2019-05-14T02:19:36.039Z,9.85
2019-05-14T02:24:37.579Z,9.74
2019-05-14T02:29:41.394Z,9.64
2019-05-14T02:34:42.647Z,9.59
2019-05-14T02:39:44.293Z,9.57
2019-05-14T02:44:48.726Z,9.56
2019-05-14T02:49:50.257Z,9.50
2019-05-14T02:54:52.085Z,9.49
2019-05-14T02:59:53.768Z,9.43
2019-05-14T03:04:55.449Z,9.37
2019-05-14T03:09:59.375Z,9.32
2019-05-14T03:15:00.560Z,9.20
2019-05-14T03:20:02.838Z,9.09
2019-05-14T03:25:04.715Z,9.00
2019-05-14T03:30:11.557Z,8.94
2019-05-14T03:35:13.270Z,8.96
2019-05-14T03:40:13.886Z,8.88
2019-05-14T03:45:15.654Z,8.83
2019-05-14T03:50:19.201Z,8.81
2019-05-14T03:55:20.871Z,8.75
2019-05-14T04:00:40.895Z,8.64
2019-05-14T04:05:42.656Z,8.53
2019-05-14T04:10:50.575Z,8.55
2019-05-14T04:15:49.703Z,8.59
2019-05-14T04:20:53.613Z,8.56
2019-05-14T04:25:55.259Z,8.73
2019-05-14T04:30:59.676Z,8.80
2019-05-14T04:36:00.579Z,8.78
2019-05-14T04:41:02.336Z,8.82
2019-05-14T04:46:04.030Z,8.85
2019-05-14T04:51:09.561Z,8.93
2019-05-14T04:56:09.978Z,8.92
2019-05-14T05:01:11.837Z,9.00
2019-05-14T05:06:13.402Z,9.05
2019-05-14T05:11:17.130Z,9.10
2019-05-14T05:16:19.421Z,9.20
2019-05-14T05:21:21.084Z,9.24
2019-05-14T05:26:22.630Z,9.38
2019-05-14T05:31:24.198Z,9.34
2019-05-14T05:36:25.851Z,9.41
2019-05-14T05:41:28.260Z,9.57
2019-05-14T05:46:29.975Z,9.67
2019-05-14T05:51:31.636Z,9.78
2019-05-14T05:56:33.294Z,9.88
2019-05-14T06:01:44.949Z,9.97
2019-05-14T06:06:39.165Z,10.02
2019-05-14T06:11:40.764Z,10.01
2019-05-14T06:16:42.325Z,10.08
2019-05-14T06:21:43.891Z,10.11
2019-05-14T06:26:45.444Z,10.23
2019-05-14T06:31:49.369Z,10.29
2019-05-14T06:36:50.511Z,10.34
2019-05-14T06:41:52.068Z,10.39
2019-05-14T06:46:53.643Z,10.47
2019-05-14T06:51:55.279Z,10.51
2019-05-14T06:56:58.260Z,10.55
2019-05-14T07:02:00.217Z,10.58
2019-05-14T07:07:01.763Z,10.57
2019-05-14T07:12:03.470Z,10.55
2019-05-14T07:17:05.081Z,10.67
2019-05-14T07:22:09.020Z,10.70
2019-05-14T07:27:10.246Z,10.71
2019-05-14T07:32:11.877Z,10.77
2019-05-14T07:37:13.453Z,10.79
2019-05-14T07:42:15.031Z,10.89
2019-05-14T07:47:18.746Z,10.92
2019-05-14T07:52:20.157Z,10.90
2019-05-14T07:57:21.708Z,10.98
2019-05-14T08:02:23.269Z,11.21
2019-05-14T08:07:24.827Z,11.37
2019-05-14T08:12:28.370Z,11.35
2019-05-14T08:17:29.875Z,11.22
2019-05-14T08:22:31.422Z,11.20
2019-05-14T08:27:32.997Z,11.12
2019-05-14T08:32:34.664Z,11.12
2019-05-14T08:37:38.544Z,11.25
2019-05-14T08:42:39.871Z,11.28
2019-05-14T08:47:41.440Z,11.35
2019-05-14T08:52:43.042Z,11.41
2019-05-14T08:57:44.798Z,11.47
2019-05-14T09:02:48.575Z,11.51
2019-05-14T09:07:50.067Z,11.54
2019-05-14T09:12:51.675Z,11.66
2019-05-14T09:17:53.259Z,11.75
2019-05-14T09:22:54.835Z,11.79
2019-05-14T09:27:58.602Z,11.78
2019-05-14T09:33:00.098Z,11.79
2019-05-14T09:38:01.819Z,11.77
2019-05-14T09:43:03.488Z,11.73
2019-05-14T09:48:05.143Z,11.78
2019-05-14T09:53:09.487Z,12.03
2019-05-14T09:58:10.432Z,12.10
2019-05-14T10:03:12.156Z,12.19
2019-05-14T10:08:13.711Z,12.42
2019-05-14T10:13:15.415Z,12.46
2019-05-14T10:18:19.004Z,12.64
2019-05-14T10:23:20.622Z,12.58
2019-05-14T10:28:22.215Z,12.44
2019-05-14T10:33:23.900Z,12.43
2019-05-14T10:38:25.468Z,12.54
2019-05-14T10:43:28.776Z,12.70
2019-05-14T10:48:30.592Z,12.92
2019-05-14T10:53:32.176Z,12.99
2019-05-14T10:58:33.912Z,13.09
2019-05-14T11:03:35.475Z,13.08
2019-05-14T11:08:38.662Z,13.00
2019-05-14T11:13:40.633Z,13.00
2019-05-14T11:18:42.310Z,13.15
2019-05-14T11:23:43.871Z,13.15
2019-05-14T11:28:45.525Z,13.01
2019-05-14T11:33:49.786Z,12.89
2019-05-14T11:38:51.182Z,12.80
2019-05-14T11:43:52.790Z,13.08
2019-05-14T11:48:54.455Z,13.39
2019-05-14T11:53:58.581Z,13.47
2019-05-14T11:58:59.761Z,13.20
2019-05-14T12:04:01.481Z,12.88
2019-05-14T12:09:05.104Z,12.94
2019-05-14T12:14:08.968Z,13.93
2019-05-14T12:19:11.956Z,14.34
2019-05-14T12:24:14.055Z,13.86
2019-05-14T12:29:15.677Z,13.51
2019-05-14T12:34:18.645Z,13.24
2019-05-14T12:39:20.613Z,13.06
2019-05-14T12:44:22.226Z,12.94
2019-05-14T12:49:23.895Z,13.26
2019-05-14T12:54:25.474Z,13.45
2019-05-14T12:59:28.530Z,13.19
2019-05-14T13:04:30.406Z,12.87
2019-05-14T13:09:32.001Z,12.62
2019-05-14T13:14:33.570Z,12.60
2019-05-14T13:19:35.227Z,12.78
2019-05-14T13:24:39.457Z,13.22
2019-05-14T13:29:40.426Z,13.69
2019-05-14T13:34:42.161Z,14.00
2019-05-14T13:39:43.809Z,13.93
2019-05-14T13:44:45.369Z,13.82
2019-05-14T13:49:48.842Z,13.87
2019-05-14T13:54:50.400Z,14.30
2019-05-14T13:59:51.958Z,14.51
2019-05-14T14:04:53.502Z,14.18
2019-05-14T14:09:55.173Z,13.79
2019-05-14T14:14:58.610Z,13.64
2019-05-14T14:20:00.372Z,13.55
2019-05-14T14:25:02.054Z,13.51
2019-05-14T14:30:04.080Z,13.51
2019-05-14T14:35:08.502Z,13.45
2019-05-14T14:40:11.081Z,13.43
2019-05-14T14:45:13.211Z,13.45
2019-05-14T14:50:14.976Z,13.47
2019-05-14T14:55:19.370Z,13.58
2019-05-14T15:00:21.036Z,14.11
2019-05-14T15:05:22.603Z,15.36
2019-05-14T15:10:24.165Z,15.18
2019-05-14T15:15:25.817Z,14.42
2019-05-14T15:20:28.931Z,14.05
2019-05-14T15:25:30.846Z,13.89
2019-05-14T15:30:32.534Z,13.89
2019-05-14T15:35:34.115Z,13.91
2019-05-14T15:40:35.720Z,13.94
2019-05-14T15:45:37.915Z,13.88
2019-05-14T15:50:39.528Z,13.80
2019-05-14T15:55:42.132Z,13.70
2019-05-14T16:00:43.812Z,13.63
2019-05-14T16:05:45.381Z,13.59
2019-05-14T16:10:47.045Z,13.53
2019-05-14T16:15:48.629Z,13.51
2019-05-14T16:20:50.292Z,13.47
2019-05-14T16:25:51.863Z,13.46
2019-05-14T16:30:53.540Z,13.45
2019-05-14T16:35:55.230Z,13.51
2019-05-14T16:40:59.371Z,13.58
2019-05-14T16:46:00.544Z,13.60
2019-05-14T16:51:02.145Z,13.93
2019-05-14T16:56:03.685Z,14.12
2019-05-14T17:01:05.363Z,14.62
2019-05-14T17:06:07.074Z,15.11
2019-05-14T17:11:09.002Z,15.07
2019-05-14T17:16:10.840Z,15.28
2019-05-14T17:21:12.538Z,15.53
2019-05-14T17:26:14.126Z,15.60
2019-05-14T17:31:18.758Z,15.60
2019-05-14T17:36:19.289Z,15.53
2019-05-14T17:41:21.063Z,15.37
2019-05-14T17:46:22.647Z,14.95
2019-05-14T17:51:24.227Z,14.61
2019-05-14T17:56:28.236Z,14.33
2019-05-14T18:01:29.455Z,14.15
2019-05-14T18:06:31.164Z,13.98
2019-05-14T18:11:32.734Z,13.90
2019-05-14T18:16:34.429Z,13.94
2019-05-14T18:21:35.991Z,13.68
2019-05-14T18:26:38.559Z,13.53
2019-05-14T18:31:44.069Z,13.51
2019-05-14T18:36:43.918Z,13.58
2019-05-14T18:41:45.518Z,13.46
2019-05-14T18:46:48.702Z,13.30
2019-05-14T18:51:50.727Z,13.06
2019-05-14T18:56:52.307Z,12.91
2019-05-14T19:01:54.256Z,12.74
2019-05-14T19:06:55.960Z,12.60
2019-05-14T19:11:58.776Z,12.56
2019-05-14T19:17:00.542Z,12.46
2019-05-14T19:22:02.236Z,12.40
2019-05-14T19:27:03.846Z,12.29
2019-05-14T19:32:05.420Z,12.19
2019-05-14T19:37:08.316Z,12.02
2019-05-14T19:42:10.200Z,11.84
2019-05-14T19:47:12.146Z,11.85
2019-05-14T19:52:13.766Z,11.86
2019-05-14T19:57:15.458Z,11.87
2019-05-14T20:02:18.418Z,11.79
2019-05-14T20:07:20.121Z,11.75
2019-05-14T20:12:21.685Z,11.69
2019-05-14T20:17:23.269Z,11.58
2019-05-14T20:22:24.925Z,11.44
2019-05-14T20:27:28.230Z,11.44
2019-05-14T20:32:29.918Z,11.36
2019-05-14T20:37:31.511Z,11.39
2019-05-14T20:42:33.147Z,11.22
2019-05-14T20:47:34.716Z,11.14
2019-05-14T20:52:36.370Z,11.03
2019-05-14T20:57:38.545Z,11.14
2019-05-14T21:02:40.397Z,11.19
2019-05-14T21:07:41.972Z,11.03
2019-05-14T21:12:43.580Z,11.03
2019-05-14T21:17:45.181Z,10.98
2019-05-14T21:22:48.445Z,10.94
2019-05-14T21:27:52.129Z,10.93
2019-05-14T21:32:53.574Z,10.85
2019-05-14T21:37:55.168Z,10.78
2019-05-14T21:42:57.338Z,10.76
2019-05-14T21:47:59.558Z,10.61
2019-05-14T21:53:01.137Z,10.58
2019-05-14T21:58:05.233Z,10.56
2019-05-14T22:03:10.174Z,10.61
2019-05-14T22:08:10.355Z,10.65
2019-05-14T22:13:12.035Z,10.68
2019-05-14T22:18:17.630Z,10.60
2019-05-14T22:23:17.855Z,10.49
2019-05-14T22:28:20.691Z,10.50
2019-05-14T22:33:22.246Z,10.39
2019-05-14T22:38:23.891Z,10.30
2019-05-14T22:43:25.456Z,10.35
2019-05-14T22:48:27.178Z,10.36
2019-05-14T22:53:30.399Z,10.33
2019-05-14T22:58:32.134Z,10.25
2019-05-14T23:03:33.781Z,10.00
2019-05-14T23:08:35.347Z,9.88
2019-05-14T23:13:38.954Z,9.86
2019-05-14T23:18:40.387Z,9.88
2019-05-14T23:23:41.966Z,9.95
2019-05-14T23:28:45.975Z,9.97
2019-05-14T23:33:48.977Z,9.91
2019-05-14T23:38:51.293Z,9.92
2019-05-14T23:43:52.904Z,9.91
2019-05-14T23:48:54.473Z,9.85
2019-05-14T23:53:56.046Z,9.72
2019-05-14T23:59:01.686Z,9.52
